sensor_id;sensor_type;location;lat;lon;timestamp;P1;durP1;ratioP1;P2;durP2;ratioP2
42770;SDS011;28426;42.872;25.314;2024-02-04T00:01:11;7.82;;;4.32;;
42770;SDS011;28426;42.872;25.314;2024-02-04T00:03:59;6.57;;;4.20;;
42770;SDS011;28426;42.872;25.314;2024-02-04T00:06:30;6.68;;;4.13;;
42770;SDS011;28426;42.872;25.314;2024-02-04T00:09:02;7.03;;;4.03;;
42770;SDS011;28426;42.872;25.314;2024-02-04T00:11:34;5.50;;;3.72;;
42770;SDS011;28426;42.872;25.314;2024-02-04T00:14:05;7.88;;;4.32;;
42770;SDS011;28426;42.872;25.314;2024-02-04T00:16:39;7.68;;;3.70;;
42770;SDS011;28426;42.872;25.314;2024-02-04T00:19:10;8.38;;;4.00;;
42770;SDS011;28426;42.872;25.314;2024-02-04T00:21:41;6.93;;;3.75;;
42770;SDS011;28426;42.872;25.314;2024-02-04T00:24:13;8.20;;;4.13;;
42770;SDS011;28426;42.872;25.314;2024-02-04T00:26:46;6.32;;;3.90;;
42770;SDS011;28426;42.872;25.314;2024-02-04T00:29:18;6.28;;;3.85;;
42770;SDS011;28426;42.872;25.314;2024-02-04T00:31:52;7.38;;;4.28;;
42770;SDS011;28426;42.872;25.314;2024-02-04T00:34:23;8.02;;;4.10;;
42770;SDS011;28426;42.872;25.314;2024-02-04T00:36:55;5.95;;;3.83;;
42770;SDS011;28426;42.872;25.314;2024-02-04T00:39:26;6.25;;;4.20;;
42770;SDS011;28426;42.872;25.314;2024-02-04T00:41:58;7.13;;;4.28;;
42770;SDS011;28426;42.872;25.314;2024-02-04T00:44:30;6.57;;;4.25;;
42770;SDS011;28426;42.872;25.314;2024-02-04T00:47:04;7.35;;;4.65;;
42770;SDS011;28426;42.872;25.314;2024-02-04T00:49:35;9.65;;;4.63;;
42770;SDS011;28426;42.872;25.314;2024-02-04T00:52:07;8.43;;;4.78;;
42770;SDS011;28426;42.872;25.314;2024-02-04T00:54:38;10.88;;;4.45;;
42770;SDS011;28426;42.872;25.314;2024-02-04T00:57:10;7.10;;;4.40;;
42770;SDS011;28426;42.872;25.314;2024-02-04T00:59:41;8.70;;;4.35;;
42770;SDS011;28426;42.872;25.314;2024-02-04T01:02:16;8.85;;;4.15;;
42770;SDS011;28426;42.872;25.314;2024-02-04T01:04:47;7.05;;;4.40;;
42770;SDS011;28426;42.872;25.314;2024-02-04T01:07:19;7.57;;;4.78;;
42770;SDS011;28426;42.872;25.314;2024-02-04T01:09:53;9.07;;;5.05;;
42770;SDS011;28426;42.872;25.314;2024-02-04T01:12:24;8.98;;;5.28;;
42770;SDS011;28426;42.872;25.314;2024-02-04T01:14:55;8.27;;;4.80;;
42770;SDS011;28426;42.872;25.314;2024-02-04T01:17:29;6.45;;;4.43;;
42770;SDS011;28426;42.872;25.314;2024-02-04T01:20:01;6.50;;;4.10;;
42770;SDS011;28426;42.872;25.314;2024-02-04T01:22:33;9.15;;;4.53;;
42770;SDS011;28426;42.872;25.314;2024-02-04T01:25:05;8.18;;;4.38;;
42770;SDS011;28426;42.872;25.314;2024-02-04T01:27:36;6.78;;;4.47;;
42770;SDS011;28426;42.872;25.314;2024-02-04T01:30:08;6.65;;;4.45;;
42770;SDS011;28426;42.872;25.314;2024-02-04T01:32:42;8.10;;;4.80;;
42770;SDS011;28426;42.872;25.314;2024-02-04T01:35:14;8.02;;;4.65;;
42770;SDS011;28426;42.872;25.314;2024-02-04T01:37:45;7.13;;;3.53;;
42770;SDS011;28426;42.872;25.314;2024-02-04T01:40:19;5.97;;;3.50;;
42770;SDS011;28426;42.872;25.314;2024-02-04T01:42:50;7.82;;;4.63;;
42770;SDS011;28426;42.872;25.314;2024-02-04T01:45:21;7.57;;;4.22;;
42770;SDS011;28426;42.872;25.314;2024-02-04T01:47:55;6.60;;;3.83;;
42770;SDS011;28426;42.872;25.314;2024-02-04T01:50:26;5.35;;;3.95;;
42770;SDS011;28426;42.872;25.314;2024-02-04T01:52:58;6.40;;;3.78;;
42770;SDS011;28426;42.872;25.314;2024-02-04T01:55:30;5.97;;;3.88;;
42770;SDS011;28426;42.872;25.314;2024-02-04T01:58:01;6.18;;;3.72;;
42770;SDS011;28426;42.872;25.314;2024-02-04T02:00:33;8.40;;;4.07;;
42770;SDS011;28426;42.872;25.314;2024-02-04T02:03:09;5.80;;;3.45;;
42770;SDS011;28426;42.872;25.314;2024-02-04T02:05:43;8.85;;;3.88;;
42770;SDS011;28426;42.872;25.314;2024-02-04T02:08:14;6.10;;;3.47;;
42770;SDS011;28426;42.872;25.314;2024-02-04T02:10:47;7.35;;;4.10;;
42770;SDS011;28426;42.872;25.314;2024-02-04T02:13:22;5.93;;;3.83;;
42770;SDS011;28426;42.872;25.314;2024-02-04T02:15:58;6.05;;;3.45;;
42770;SDS011;28426;42.872;25.314;2024-02-04T02:18:42;5.15;;;3.13;;
42770;SDS011;28426;42.872;25.314;2024-02-04T02:21:22;6.70;;;3.25;;
42770;SDS011;28426;42.872;25.314;2024-02-04T02:24:07;6.00;;;3.47;;
42770;SDS011;28426;42.872;25.314;2024-02-04T02:26:44;7.80;;;3.55;;
42770;SDS011;28426;42.872;25.314;2024-02-04T02:29:16;5.45;;;3.17;;
42770;SDS011;28426;42.872;25.314;2024-02-04T02:31:48;5.93;;;3.35;;
42770;SDS011;28426;42.872;25.314;2024-02-04T02:34:19;6.13;;;3.47;;
42770;SDS011;28426;42.872;25.314;2024-02-04T02:37:08;7.45;;;3.25;;
42770;SDS011;28426;42.872;25.314;2024-02-04T02:39:46;6.07;;;3.45;;
42770;SDS011;28426;42.872;25.314;2024-02-04T02:42:27;6.53;;;3.35;;
42770;SDS011;28426;42.872;25.314;2024-02-04T02:45:00;5.78;;;3.55;;
42770;SDS011;28426;42.872;25.314;2024-02-04T02:47:32;5.72;;;3.10;;
42770;SDS011;28426;42.872;25.314;2024-02-04T02:50:06;5.47;;;2.72;;
42770;SDS011;28426;42.872;25.314;2024-02-04T02:52:39;4.93;;;3.13;;
42770;SDS011;28426;42.872;25.314;2024-02-04T02:55:10;4.45;;;2.63;;
42770;SDS011;28426;42.872;25.314;2024-02-04T02:57:44;7.68;;;3.13;;
42770;SDS011;28426;42.872;25.314;2024-02-04T03:00:16;5.70;;;2.73;;
42770;SDS011;28426;42.872;25.314;2024-02-04T03:02:47;4.55;;;2.58;;
42770;SDS011;28426;42.872;25.314;2024-02-04T03:05:18;5.13;;;2.72;;
42770;SDS011;28426;42.872;25.314;2024-02-04T03:07:49;5.22;;;2.85;;
42770;SDS011;28426;42.872;25.314;2024-02-04T03:10:21;4.47;;;2.65;;
42770;SDS011;28426;42.872;25.314;2024-02-04T03:12:54;5.72;;;3.88;;
42770;SDS011;28426;42.872;25.314;2024-02-04T03:15:26;7.40;;;2.80;;
42770;SDS011;28426;42.872;25.314;2024-02-04T03:17:58;5.15;;;2.35;;
42770;SDS011;28426;42.872;25.314;2024-02-04T03:20:29;4.20;;;2.33;;
42770;SDS011;28426;42.872;25.314;2024-02-04T03:23:01;4.50;;;2.50;;
42770;SDS011;28426;42.872;25.314;2024-02-04T03:25:32;6.80;;;2.50;;
42770;SDS011;28426;42.872;25.314;2024-02-04T03:28:07;6.57;;;2.42;;
42770;SDS011;28426;42.872;25.314;2024-02-04T03:30:38;4.45;;;2.20;;
42770;SDS011;28426;42.872;25.314;2024-02-04T03:33:10;4.78;;;2.20;;
42770;SDS011;28426;42.872;25.314;2024-02-04T03:35:41;4.70;;;2.50;;
42770;SDS011;28426;42.872;25.314;2024-02-04T03:38:12;4.28;;;2.30;;
42770;SDS011;28426;42.872;25.314;2024-02-04T03:40:45;5.43;;;2.63;;
42770;SDS011;28426;42.872;25.314;2024-02-04T03:43:19;5.20;;;2.42;;
42770;SDS011;28426;42.872;25.314;2024-02-04T03:45:51;4.68;;;2.30;;
42770;SDS011;28426;42.872;25.314;2024-02-04T03:48:22;4.95;;;2.15;;
42770;SDS011;28426;42.872;25.314;2024-02-04T03:50:54;4.57;;;2.40;;
42770;SDS011;28426;42.872;25.314;2024-02-04T03:53:26;5.68;;;2.42;;
42770;SDS011;28426;42.872;25.314;2024-02-04T03:55:57;6.47;;;2.30;;
42770;SDS011;28426;42.872;25.314;2024-02-04T03:58:31;5.63;;;2.20;;
42770;SDS011;28426;42.872;25.314;2024-02-04T04:01:03;3.97;;;2.10;;
42770;SDS011;28426;42.872;25.314;2024-02-04T04:03:35;4.15;;;2.20;;
42770;SDS011;28426;42.872;25.314;2024-02-04T04:06:09;4.95;;;2.22;;
42770;SDS011;28426;42.872;25.314;2024-02-04T04:08:41;4.85;;;2.25;;
42770;SDS011;28426;42.872;25.314;2024-02-04T04:11:13;4.82;;;2.20;;
42770;SDS011;28426;42.872;25.314;2024-02-04T04:13:46;6.63;;;2.33;;
42770;SDS011;28426;42.872;25.314;2024-02-04T04:16:20;6.22;;;2.63;;
42770;SDS011;28426;42.872;25.314;2024-02-04T04:18:52;5.22;;;2.67;;
42770;SDS011;28426;42.872;25.314;2024-02-04T04:21:26;5.47;;;2.58;;
42770;SDS011;28426;42.872;25.314;2024-02-04T04:23:56;4.45;;;2.08;;
42770;SDS011;28426;42.872;25.314;2024-02-04T04:26:27;4.22;;;2.40;;
42770;SDS011;28426;42.872;25.314;2024-02-04T04:29:03;4.28;;;2.13;;
42770;SDS011;28426;42.872;25.314;2024-02-04T04:31:35;4.40;;;2.38;;
42770;SDS011;28426;42.872;25.314;2024-02-04T04:34:06;3.92;;;2.20;;
42770;SDS011;28426;42.872;25.314;2024-02-04T04:36:37;6.00;;;2.13;;
42770;SDS011;28426;42.872;25.314;2024-02-04T04:39:08;5.88;;;2.10;;
42770;SDS011;28426;42.872;25.314;2024-02-04T04:41:40;6.03;;;4.07;;
42770;SDS011;28426;42.872;25.314;2024-02-04T04:44:17;4.07;;;2.03;;
42770;SDS011;28426;42.872;25.314;2024-02-04T04:46:55;3.22;;;1.80;;
42770;SDS011;28426;42.872;25.314;2024-02-04T04:49:28;4.22;;;1.90;;
42770;SDS011;28426;42.872;25.314;2024-02-04T04:51:59;4.88;;;1.90;;
42770;SDS011;28426;42.872;25.314;2024-02-04T04:54:34;3.63;;;1.70;;
42770;SDS011;28426;42.872;25.314;2024-02-04T04:57:07;3.40;;;1.75;;
42770;SDS011;28426;42.872;25.314;2024-02-04T04:59:42;5.65;;;1.80;;
42770;SDS011;28426;42.872;25.314;2024-02-04T05:02:13;3.45;;;1.83;;
42770;SDS011;28426;42.872;25.314;2024-02-04T05:04:45;4.47;;;1.83;;
42770;SDS011;28426;42.872;25.314;2024-02-04T05:07:16;3.45;;;1.65;;
42770;SDS011;28426;42.872;25.314;2024-02-04T05:09:49;3.17;;;1.77;;
42770;SDS011;28426;42.872;25.314;2024-02-04T05:12:21;3.00;;;1.48;;
42770;SDS011;28426;42.872;25.314;2024-02-04T05:14:55;4.03;;;1.70;;
42770;SDS011;28426;42.872;25.314;2024-02-04T05:17:31;3.47;;;1.63;;
42770;SDS011;28426;42.872;25.314;2024-02-04T05:20:03;3.15;;;1.40;;
42770;SDS011;28426;42.872;25.314;2024-02-04T05:22:37;3.40;;;1.60;;
42770;SDS011;28426;42.872;25.314;2024-02-04T05:25:08;5.28;;;1.70;;
42770;SDS011;28426;42.872;25.314;2024-02-04T05:27:39;3.28;;;1.65;;
42770;SDS011;28426;42.872;25.314;2024-02-04T05:30:14;8.23;;;1.90;;
42770;SDS011;28426;42.872;25.314;2024-02-04T05:32:45;6.22;;;1.77;;
42770;SDS011;28426;42.872;25.314;2024-02-04T05:35:16;4.63;;;1.80;;
42770;SDS011;28426;42.872;25.314;2024-02-04T05:37:47;4.30;;;2.15;;
42770;SDS011;28426;42.872;25.314;2024-02-04T05:40:18;4.63;;;2.25;;
42770;SDS011;28426;42.872;25.314;2024-02-04T05:42:50;4.07;;;1.95;;
42770;SDS011;28426;42.872;25.314;2024-02-04T05:45:24;5.40;;;1.98;;
42770;SDS011;28426;42.872;25.314;2024-02-04T05:47:56;2.97;;;1.83;;
42770;SDS011;28426;42.872;25.314;2024-02-04T05:50:28;3.90;;;2.20;;
42770;SDS011;28426;42.872;25.314;2024-02-04T05:52:59;4.57;;;2.08;;
42770;SDS011;28426;42.872;25.314;2024-02-04T05:55:30;4.10;;;2.20;;
42770;SDS011;28426;42.872;25.314;2024-02-04T05:58:01;4.40;;;1.95;;
42770;SDS011;28426;42.872;25.314;2024-02-04T06:00:36;3.03;;;1.60;;
42770;SDS011;28426;42.872;25.314;2024-02-04T06:03:07;4.72;;;1.95;;
42770;SDS011;28426;42.872;25.314;2024-02-04T06:05:38;3.72;;;1.88;;
42770;SDS011;28426;42.872;25.314;2024-02-04T06:08:09;3.20;;;1.75;;
42770;SDS011;28426;42.872;25.314;2024-02-04T06:10:40;7.68;;;2.63;;
42770;SDS011;28426;42.872;25.314;2024-02-04T06:13:12;4.82;;;1.98;;
42770;SDS011;28426;42.872;25.314;2024-02-04T06:15:47;4.50;;;1.80;;
42770;SDS011;28426;42.872;25.314;2024-02-04T06:18:18;4.15;;;2.08;;
42770;SDS011;28426;42.872;25.314;2024-02-04T06:20:49;4.13;;;2.13;;
42770;SDS011;28426;42.872;25.314;2024-02-04T06:23:21;6.07;;;2.90;;
42770;SDS011;28426;42.872;25.314;2024-02-04T06:25:52;4.55;;;2.22;;
42770;SDS011;28426;42.872;25.314;2024-02-04T06:28:23;2.90;;;1.55;;
42770;SDS011;28426;42.872;25.314;2024-02-04T06:30:56;5.85;;;2.05;;
42770;SDS011;28426;42.872;25.314;2024-02-04T06:33:28;3.72;;;1.88;;
42770;SDS011;28426;42.872;25.314;2024-02-04T06:35:59;5.15;;;2.63;;
42770;SDS011;28426;42.872;25.314;2024-02-04T06:38:31;4.88;;;2.35;;
42770;SDS011;28426;42.872;25.314;2024-02-04T06:41:02;4.40;;;2.10;;
42770;SDS011;28426;42.872;25.314;2024-02-04T06:43:36;3.47;;;2.00;;
42770;SDS011;28426;42.872;25.314;2024-02-04T06:46:11;4.22;;;2.00;;
42770;SDS011;28426;42.872;25.314;2024-02-04T06:48:42;8.98;;;3.58;;
42770;SDS011;28426;42.872;25.314;2024-02-04T06:51:15;5.05;;;2.50;;
42770;SDS011;28426;42.872;25.314;2024-02-04T06:54:10;5.32;;;2.97;;
42770;SDS011;28426;42.872;25.314;2024-02-04T06:56:42;5.55;;;2.63;;
42770;SDS011;28426;42.872;25.314;2024-02-04T06:59:15;4.43;;;2.42;;
42770;SDS011;28426;42.872;25.314;2024-02-04T07:01:56;4.45;;;2.28;;
42770;SDS011;28426;42.872;25.314;2024-02-04T07:04:40;6.55;;;2.45;;
42770;SDS011;28426;42.872;25.314;2024-02-04T07:07:12;4.50;;;2.10;;
42770;SDS011;28426;42.872;25.314;2024-02-04T07:09:43;3.65;;;2.00;;
42770;SDS011;28426;42.872;25.314;2024-02-04T07:12:18;9.05;;;2.55;;
42770;SDS011;28426;42.872;25.314;2024-02-04T07:14:50;6.97;;;2.60;;
42770;SDS011;28426;42.872;25.314;2024-02-04T07:17:24;4.45;;;2.08;;
42770;SDS011;28426;42.872;25.314;2024-02-04T07:19:55;5.18;;;2.58;;
42770;SDS011;28426;42.872;25.314;2024-02-04T07:22:29;4.80;;;2.50;;
42770;SDS011;28426;42.872;25.314;2024-02-04T07:25:04;4.78;;;2.67;;
42770;SDS011;28426;42.872;25.314;2024-02-04T07:27:35;3.72;;;2.15;;
42770;SDS011;28426;42.872;25.314;2024-02-04T07:30:07;3.50;;;1.90;;
42770;SDS011;28426;42.872;25.314;2024-02-04T07:32:44;3.63;;;2.00;;
42770;SDS011;28426;42.872;25.314;2024-02-04T07:35:16;4.47;;;2.00;;
42770;SDS011;28426;42.872;25.314;2024-02-04T07:37:50;4.13;;;2.42;;
42770;SDS011;28426;42.872;25.314;2024-02-04T07:40:21;4.15;;;2.25;;
42770;SDS011;28426;42.872;25.314;2024-02-04T07:42:52;4.85;;;2.47;;
42770;SDS011;28426;42.872;25.314;2024-02-04T07:45:24;5.90;;;2.75;;
42770;SDS011;28426;42.872;25.314;2024-02-04T07:47:58;6.68;;;2.80;;
42770;SDS011;28426;42.872;25.314;2024-02-04T07:50:31;5.07;;;2.10;;
42770;SDS011;28426;42.872;25.314;2024-02-04T07:53:02;4.53;;;2.72;;
42770;SDS011;28426;42.872;25.314;2024-02-04T07:55:34;3.95;;;1.92;;
42770;SDS011;28426;42.872;25.314;2024-02-04T07:58:07;4.18;;;2.10;;
42770;SDS011;28426;42.872;25.314;2024-02-04T08:00:39;3.78;;;2.10;;
42770;SDS011;28426;42.872;25.314;2024-02-04T08:03:18;7.82;;;2.83;;
42770;SDS011;28426;42.872;25.314;2024-02-04T08:06:02;4.25;;;1.80;;
42770;SDS011;28426;42.872;25.314;2024-02-04T08:08:40;4.05;;;1.92;;
42770;SDS011;28426;42.872;25.314;2024-02-04T08:11:16;5.13;;;2.03;;
42770;SDS011;28426;42.872;25.314;2024-02-04T08:13:49;3.88;;;2.00;;
42770;SDS011;28426;42.872;25.314;2024-02-04T08:16:20;7.35;;;2.40;;
42770;SDS011;28426;42.872;25.314;2024-02-04T08:18:55;7.00;;;2.10;;
42770;SDS011;28426;42.872;25.314;2024-02-04T08:21:28;4.35;;;1.98;;
42770;SDS011;28426;42.872;25.314;2024-02-04T08:24:00;7.13;;;2.50;;
42770;SDS011;28426;42.872;25.314;2024-02-04T08:26:33;5.28;;;2.10;;
42770;SDS011;28426;42.872;25.314;2024-02-04T08:29:04;4.47;;;2.30;;
42770;SDS011;28426;42.872;25.314;2024-02-04T08:31:35;4.93;;;2.40;;
42770;SDS011;28426;42.872;25.314;2024-02-04T08:34:10;3.55;;;1.90;;
42770;SDS011;28426;42.872;25.314;2024-02-04T08:36:43;4.43;;;2.13;;
42770;SDS011;28426;42.872;25.314;2024-02-04T08:39:14;4.75;;;2.10;;
42770;SDS011;28426;42.872;25.314;2024-02-04T08:41:46;6.50;;;2.55;;
42770;SDS011;28426;42.872;25.314;2024-02-04T08:44:17;8.00;;;2.50;;
42770;SDS011;28426;42.872;25.314;2024-02-04T08:47:01;3.88;;;2.10;;
42770;SDS011;28426;42.872;25.314;2024-02-04T08:49:35;6.70;;;2.30;;
42770;SDS011;28426;42.872;25.314;2024-02-04T08:52:07;7.10;;;2.22;;
42770;SDS011;28426;42.872;25.314;2024-02-04T08:54:49;3.85;;;2.08;;
42770;SDS011;28426;42.872;25.314;2024-02-04T08:57:24;3.60;;;2.05;;
42770;SDS011;28426;42.872;25.314;2024-02-04T09:00:06;5.03;;;2.33;;
42770;SDS011;28426;42.872;25.314;2024-02-04T09:02:41;4.97;;;2.20;;
42770;SDS011;28426;42.872;25.314;2024-02-04T09:05:16;5.35;;;2.40;;
42770;SDS011;28426;42.872;25.314;2024-02-04T09:07:50;3.58;;;1.63;;
42770;SDS011;28426;42.872;25.314;2024-02-04T09:10:23;3.78;;;1.90;;
42770;SDS011;28426;42.872;25.314;2024-02-04T09:12:55;10.95;;;2.50;;
42770;SDS011;28426;42.872;25.314;2024-02-04T09:15:27;5.07;;;1.77;;
42770;SDS011;28426;42.872;25.314;2024-02-04T09:18:01;3.78;;;1.83;;
42770;SDS011;28426;42.872;25.314;2024-02-04T09:20:39;4.80;;;2.08;;
42770;SDS011;28426;42.872;25.314;2024-02-04T09:23:12;8.38;;;2.30;;
42770;SDS011;28426;42.872;25.314;2024-02-04T09:25:48;3.85;;;1.80;;
42770;SDS011;28426;42.872;25.314;2024-02-04T09:28:23;4.35;;;1.95;;
42770;SDS011;28426;42.872;25.314;2024-02-04T09:31:00;6.22;;;1.73;;
42770;SDS011;28426;42.872;25.314;2024-02-04T09:33:45;5.45;;;2.42;;
42770;SDS011;28426;42.872;25.314;2024-02-04T09:36:25;8.73;;;2.88;;
42770;SDS011;28426;42.872;25.314;2024-02-04T09:39:01;9.10;;;3.50;;
42770;SDS011;28426;42.872;25.314;2024-02-04T09:41:34;6.18;;;2.30;;
42770;SDS011;28426;42.872;25.314;2024-02-04T09:44:20;9.65;;;2.72;;
42770;SDS011;28426;42.872;25.314;2024-02-04T09:46:57;10.70;;;3.35;;
42770;SDS011;28426;42.872;25.314;2024-02-04T09:49:30;5.40;;;2.30;;
42770;SDS011;28426;42.872;25.314;2024-02-04T09:52:11;7.10;;;2.23;;
42770;SDS011;28426;42.872;25.314;2024-02-04T09:54:45;4.38;;;2.30;;
42770;SDS011;28426;42.872;25.314;2024-02-04T09:57:20;6.72;;;2.45;;
42770;SDS011;28426;42.872;25.314;2024-02-04T09:59:53;9.73;;;2.90;;
42770;SDS011;28426;42.872;25.314;2024-02-04T10:02:26;10.90;;;3.30;;
42770;SDS011;28426;42.872;25.314;2024-02-04T10:04:57;4.63;;;2.40;;
42770;SDS011;28426;42.872;25.314;2024-02-04T10:07:34;5.70;;;3.00;;
42770;SDS011;28426;42.872;25.314;2024-02-04T10:10:07;10.50;;;3.47;;
42770;SDS011;28426;42.872;25.314;2024-02-04T10:12:41;11.10;;;3.10;;
42770;SDS011;28426;42.872;25.314;2024-02-04T10:15:12;10.98;;;3.05;;
42770;SDS011;28426;42.872;25.314;2024-02-04T10:17:45;9.45;;;3.50;;
42770;SDS011;28426;42.872;25.314;2024-02-04T10:20:17;14.55;;;3.38;;
42770;SDS011;28426;42.872;25.314;2024-02-04T10:23:15;7.68;;;3.38;;
42770;SDS011;28426;42.872;25.314;2024-02-04T10:25:56;16.73;;;4.72;;
42770;SDS011;28426;42.872;25.314;2024-02-04T10:28:33;5.88;;;2.58;;
42770;SDS011;28426;42.872;25.314;2024-02-04T10:31:08;8.90;;;3.00;;
42770;SDS011;28426;42.872;25.314;2024-02-04T10:33:42;5.10;;;2.50;;
42770;SDS011;28426;42.872;25.314;2024-02-04T10:36:15;7.53;;;2.78;;
42770;SDS011;28426;42.872;25.314;2024-02-04T10:38:50;10.05;;;2.70;;
42770;SDS011;28426;42.872;25.314;2024-02-04T10:41:21;6.18;;;2.38;;
42770;SDS011;28426;42.872;25.314;2024-02-04T10:43:53;5.88;;;3.25;;
42770;SDS011;28426;42.872;25.314;2024-02-04T10:46:25;11.63;;;2.90;;
42770;SDS011;28426;42.872;25.314;2024-02-04T10:51:34;8.07;;;2.50;;
42770;SDS011;28426;42.872;25.314;2024-02-04T10:54:09;7.85;;;3.05;;
42770;SDS011;28426;42.872;25.314;2024-02-04T10:56:45;14.68;;;4.50;;
42770;SDS011;28426;42.872;25.314;2024-02-04T10:59:21;8.68;;;4.07;;
42770;SDS011;28426;42.872;25.314;2024-02-04T11:01:52;13.80;;;4.05;;
42770;SDS011;28426;42.872;25.314;2024-02-04T11:04:23;8.27;;;2.50;;
42770;SDS011;28426;42.872;25.314;2024-02-04T11:06:57;10.15;;;3.92;;
42770;SDS011;28426;42.872;25.314;2024-02-04T11:09:31;7.03;;;3.28;;
42770;SDS011;28426;42.872;25.314;2024-02-04T11:12:04;8.83;;;3.20;;
42770;SDS011;28426;42.872;25.314;2024-02-04T11:14:40;9.73;;;3.47;;
42770;SDS011;28426;42.872;25.314;2024-02-04T11:17:20;10.27;;;4.35;;
42770;SDS011;28426;42.872;25.314;2024-02-04T11:20:12;7.65;;;3.42;;
42770;SDS011;28426;42.872;25.314;2024-02-04T11:23:01;8.67;;;2.90;;
42770;SDS011;28426;42.872;25.314;2024-02-04T11:25:48;13.45;;;3.75;;
42770;SDS011;28426;42.872;25.314;2024-02-04T11:28:25;10.65;;;3.17;;
42770;SDS011;28426;42.872;25.314;2024-02-04T11:30:57;6.82;;;2.85;;
42770;SDS011;28426;42.872;25.314;2024-02-04T11:33:27;11.52;;;3.00;;
42770;SDS011;28426;42.872;25.314;2024-02-04T11:35:59;7.55;;;2.50;;
42770;SDS011;28426;42.872;25.314;2024-02-04T11:38:31;6.63;;;3.08;;
42770;SDS011;28426;42.872;25.314;2024-02-04T11:41:06;11.70;;;3.83;;
42770;SDS011;28426;42.872;25.314;2024-02-04T11:43:37;8.68;;;3.35;;
42770;SDS011;28426;42.872;25.314;2024-02-04T11:46:15;14.18;;;3.55;;
42770;SDS011;28426;42.872;25.314;2024-02-04T11:48:51;5.97;;;2.40;;
42770;SDS011;28426;42.872;25.314;2024-02-04T11:51:24;6.97;;;2.20;;
42770;SDS011;28426;42.872;25.314;2024-02-04T11:53:55;8.40;;;2.45;;
42770;SDS011;28426;42.872;25.314;2024-02-04T11:56:31;7.82;;;2.70;;
42770;SDS011;28426;42.872;25.314;2024-02-04T11:59:03;7.63;;;2.40;;
42770;SDS011;28426;42.872;25.314;2024-02-04T12:01:36;9.45;;;2.80;;
42770;SDS011;28426;42.872;25.314;2024-02-04T12:04:10;8.30;;;3.47;;
42770;SDS011;28426;42.872;25.314;2024-02-04T12:06:47;5.40;;;3.00;;
42770;SDS011;28426;42.872;25.314;2024-02-04T12:09:18;7.90;;;2.80;;
42770;SDS011;28426;42.872;25.314;2024-02-04T12:11:53;5.30;;;2.15;;
42770;SDS011;28426;42.872;25.314;2024-02-04T12:14:24;6.47;;;2.90;;
42770;SDS011;28426;42.872;25.314;2024-02-04T12:16:57;5.55;;;2.60;;
42770;SDS011;28426;42.872;25.314;2024-02-04T12:19:27;9.48;;;2.60;;
42770;SDS011;28426;42.872;25.314;2024-02-04T12:21:58;6.07;;;2.22;;
42770;SDS011;28426;42.872;25.314;2024-02-04T12:24:36;9.00;;;2.75;;
42770;SDS011;28426;42.872;25.314;2024-02-04T12:27:10;5.60;;;2.40;;
42770;SDS011;28426;42.872;25.314;2024-02-04T12:29:41;5.63;;;2.15;;
42770;SDS011;28426;42.872;25.314;2024-02-04T12:32:13;7.03;;;2.72;;
42770;SDS011;28426;42.872;25.314;2024-02-04T12:34:46;11.75;;;3.72;;
42770;SDS011;28426;42.872;25.314;2024-02-04T12:37:21;7.40;;;2.80;;
42770;SDS011;28426;42.872;25.314;2024-02-04T12:39:53;15.30;;;4.80;;
42770;SDS011;28426;42.872;25.314;2024-02-04T12:42:29;5.05;;;1.85;;
42770;SDS011;28426;42.872;25.314;2024-02-04T12:45:00;6.45;;;2.50;;
42770;SDS011;28426;42.872;25.314;2024-02-04T12:47:30;11.07;;;3.60;;
42770;SDS011;28426;42.872;25.314;2024-02-04T12:50:02;9.27;;;3.40;;
42770;SDS011;28426;42.872;25.314;2024-02-04T12:52:33;6.00;;;2.58;;
42770;SDS011;28426;42.872;25.314;2024-02-04T12:55:06;6.68;;;2.60;;
42770;SDS011;28426;42.872;25.314;2024-02-04T12:57:40;5.75;;;2.72;;
42770;SDS011;28426;42.872;25.314;2024-02-04T13:00:11;8.88;;;2.95;;
42770;SDS011;28426;42.872;25.314;2024-02-04T13:02:43;9.18;;;2.13;;
42770;SDS011;28426;42.872;25.314;2024-02-04T13:05:21;4.53;;;2.00;;
42770;SDS011;28426;42.872;25.314;2024-02-04T13:07:53;17.95;;;3.78;;
42770;SDS011;28426;42.872;25.314;2024-02-04T13:10:25;5.32;;;1.95;;
42770;SDS011;28426;42.872;25.314;2024-02-04T13:13:03;8.80;;;2.33;;
42770;SDS011;28426;42.872;25.314;2024-02-04T13:15:37;5.22;;;1.60;;
42770;SDS011;28426;42.872;25.314;2024-02-04T13:18:11;7.93;;;1.90;;
42770;SDS011;28426;42.872;25.314;2024-02-04T13:20:43;4.65;;;1.80;;
42770;SDS011;28426;42.872;25.314;2024-02-04T13:23:14;3.70;;;1.75;;
42770;SDS011;28426;42.872;25.314;2024-02-04T13:25:44;7.15;;;2.92;;
42770;SDS011;28426;42.872;25.314;2024-02-04T13:28:18;13.55;;;4.72;;
42770;SDS011;28426;42.872;25.314;2024-02-04T13:30:50;7.80;;;2.90;;
42770;SDS011;28426;42.872;25.314;2024-02-04T13:33:21;5.43;;;2.28;;
42770;SDS011;28426;42.872;25.314;2024-02-04T13:35:52;6.55;;;2.80;;
42770;SDS011;28426;42.872;25.314;2024-02-04T13:38:23;7.00;;;2.75;;
42770;SDS011;28426;42.872;25.314;2024-02-04T13:40:54;4.22;;;1.75;;
42770;SDS011;28426;42.872;25.314;2024-02-04T13:43:27;18.10;;;2.97;;
42770;SDS011;28426;42.872;25.314;2024-02-04T13:45:59;10.05;;;3.10;;
42770;SDS011;28426;42.872;25.314;2024-02-04T13:48:30;9.43;;;3.47;;
42770;SDS011;28426;42.872;25.314;2024-02-04T13:51:01;6.43;;;2.30;;
42770;SDS011;28426;42.872;25.314;2024-02-04T13:53:33;5.00;;;2.25;;
42770;SDS011;28426;42.872;25.314;2024-02-04T13:56:04;5.53;;;2.28;;
42770;SDS011;28426;42.872;25.314;2024-02-04T13:58:38;8.18;;;3.53;;
42770;SDS011;28426;42.872;25.314;2024-02-04T14:01:09;9.43;;;4.18;;
42770;SDS011;28426;42.872;25.314;2024-02-04T14:03:42;8.13;;;3.70;;
42770;SDS011;28426;42.872;25.314;2024-02-04T14:06:13;18.02;;;5.22;;
42770;SDS011;28426;42.872;25.314;2024-02-04T14:08:44;8.85;;;4.20;;
42770;SDS011;28426;42.872;25.314;2024-02-04T14:11:15;10.85;;;3.40;;
42770;SDS011;28426;42.872;25.314;2024-02-04T14:13:48;8.00;;;3.08;;
42770;SDS011;28426;42.872;25.314;2024-02-04T14:16:19;12.02;;;5.05;;
42770;SDS011;28426;42.872;25.314;2024-02-04T14:18:50;8.85;;;5.65;;
42770;SDS011;28426;42.872;25.314;2024-02-04T14:21:27;12.23;;;5.70;;
42770;SDS011;28426;42.872;25.314;2024-02-04T14:23:58;10.73;;;5.43;;
42770;SDS011;28426;42.872;25.314;2024-02-04T14:26:28;12.90;;;6.55;;
42770;SDS011;28426;42.872;25.314;2024-02-04T14:29:02;10.52;;;5.57;;
42770;SDS011;28426;42.872;25.314;2024-02-04T14:31:33;13.68;;;6.53;;
42770;SDS011;28426;42.872;25.314;2024-02-04T14:34:04;15.25;;;5.55;;
42770;SDS011;28426;42.872;25.314;2024-02-04T14:36:35;17.17;;;8.43;;
42770;SDS011;28426;42.872;25.314;2024-02-04T14:39:06;7.60;;;4.00;;
42770;SDS011;28426;42.872;25.314;2024-02-04T14:41:38;11.75;;;5.60;;
42770;SDS011;28426;42.872;25.314;2024-02-04T14:44:11;9.35;;;4.05;;
42770;SDS011;28426;42.872;25.314;2024-02-04T14:46:42;11.57;;;6.40;;
42770;SDS011;28426;42.872;25.314;2024-02-04T14:49:13;14.75;;;7.60;;
42770;SDS011;28426;42.872;25.314;2024-02-04T14:51:44;15.70;;;6.55;;
42770;SDS011;28426;42.872;25.314;2024-02-04T14:54:15;13.25;;;4.75;;
42770;SDS011;28426;42.872;25.314;2024-02-04T14:56:45;10.30;;;5.50;;
42770;SDS011;28426;42.872;25.314;2024-02-04T14:59:21;12.80;;;6.55;;
42770;SDS011;28426;42.872;25.314;2024-02-04T15:01:52;18.80;;;8.77;;
42770;SDS011;28426;42.872;25.314;2024-02-04T15:04:23;11.50;;;5.55;;
42770;SDS011;28426;42.872;25.314;2024-02-04T15:06:55;14.40;;;5.88;;
42770;SDS011;28426;42.872;25.314;2024-02-04T15:09:25;15.10;;;5.47;;
42770;SDS011;28426;42.872;25.314;2024-02-04T15:11:56;12.68;;;5.05;;